XSR361 KBUF-KTEB
Flight info
| Callsign | XSR361 |
|---|---|
| Flight time | 0h 47m |
| Altitude | 27000 |
| Route | BEEPS HNK WEARD V489 COATE |
| Aircraft | E55P/M-SBDGRW/LB2 |
Departure
| Time | 2026-05-01 12:46 |
|---|---|
| Airport | Buffalo Niagara International Airport (KBUF) |
Arrival
| Time | 2026-05-01 13:33 |
|---|---|
| Airport | Teterboro Airport (KTEB) |
| Time | Latitude | Longitude | Altitude | Speed | Heading |
|---|---|---|---|---|---|
| 2026-05-01 12:13 | 42.94441 | -78.73992 | 704 ft | 0 kts | 270° |
| 2026-05-01 12:40 | 42.94444 | -78.74002 | 704 ft | 3 kts | 308° |
| 2026-05-01 12:40 | 42.94476 | -78.73987 | 703 ft | 7 kts | 87° |
| 2026-05-01 12:40 | 42.94442 | -78.73909 | 702 ft | 11 kts | 127° |
| 2026-05-01 12:41 | 42.94384 | -78.73803 | 702 ft | 15 kts | 126° |
| 2026-05-01 12:41 | 42.94319 | -78.73684 | 703 ft | 16 kts | 127° |
| 2026-05-01 12:41 | 42.94253 | -78.73563 | 704 ft | 16 kts | 127° |
| 2026-05-01 12:41 | 42.94179 | -78.73431 | 703 ft | 18 kts | 127° |
| 2026-05-01 12:42 | 42.94104 | -78.73290 | 702 ft | 18 kts | 127° |
| 2026-05-01 12:42 | 42.94025 | -78.73146 | 702 ft | 18 kts | 127° |
| 2026-05-01 12:42 | 42.93947 | -78.73005 | 702 ft | 17 kts | 126° |
| 2026-05-01 12:42 | 42.93941 | -78.72884 | 702 ft | 13 kts | 40° |
| 2026-05-01 12:43 | 42.94019 | -78.72781 | 702 ft | 18 kts | 44° |
| 2026-05-01 12:43 | 42.94115 | -78.72655 | 702 ft | 19 kts | 44° |
| 2026-05-01 12:43 | 42.94213 | -78.72527 | 701 ft | 20 kts | 44° |
| 2026-05-01 12:43 | 42.94317 | -78.72389 | 699 ft | 21 kts | 43° |
| 2026-05-01 12:44 | 42.94429 | -78.72244 | 697 ft | 22 kts | 43° |
| 2026-05-01 12:44 | 42.94545 | -78.72089 | 695 ft | 23 kts | 44° |
| 2026-05-01 12:44 | 42.94750 | -78.71828 | 695 ft | 15 kts | 24° |
| 2026-05-01 12:45 | 42.94830 | -78.71927 | 695 ft | 10 kts | 223° |
| 2026-05-01 12:45 | 42.94664 | -78.72144 | 696 ft | 70 kts | 224° |
| 2026-05-01 12:45 | 42.94141 | -78.72829 | 783 ft | 128 kts | 223° |
| 2026-05-01 12:46 | 42.93456 | -78.73714 | 1410 ft | 145 kts | 216° |
| 2026-05-01 12:46 | 42.92447 | -78.74008 | 1953 ft | 168 kts | 165° |
| 2026-05-01 12:46 | 42.91537 | -78.72944 | 2641 ft | 187 kts | 114° |
| 2026-05-01 12:46 | 42.91329 | -78.71133 | 3317 ft | 206 kts | 90° |
| 2026-05-01 12:47 | 42.91340 | -78.69101 | 3952 ft | 226 kts | 90° |
| 2026-05-01 12:47 | 42.91344 | -78.66919 | 4778 ft | 236 kts | 92° |
| 2026-05-01 12:47 | 42.91244 | -78.64677 | 5629 ft | 245 kts | 95° |
| 2026-05-01 12:47 | 42.91116 | -78.62322 | 6494 ft | 253 kts | 95° |
| 2026-05-01 12:48 | 42.91004 | -78.59946 | 7357 ft | 260 kts | 95° |
| 2026-05-01 12:48 | 42.90878 | -78.57445 | 8156 ft | 270 kts | 95° |
| 2026-05-01 12:48 | 42.90751 | -78.54863 | 8987 ft | 277 kts | 94° |
| 2026-05-01 12:48 | 42.90621 | -78.52232 | 9773 ft | 284 kts | 94° |
| 2026-05-01 12:49 | 42.90488 | -78.49529 | 10535 ft | 292 kts | 94° |
| 2026-05-01 12:49 | 42.90353 | -78.46767 | 11355 ft | 297 kts | 94° |
| 2026-05-01 12:49 | 42.90214 | -78.43941 | 12182 ft | 302 kts | 94° |
| 2026-05-01 12:49 | 42.90070 | -78.41090 | 12963 ft | 307 kts | 94° |
| 2026-05-01 12:50 | 42.89925 | -78.38182 | 13756 ft | 312 kts | 94° |
| 2026-05-01 12:50 | 42.89773 | -78.35190 | 14541 ft | 318 kts | 94° |
| 2026-05-01 12:50 | 42.89621 | -78.32177 | 15311 ft | 324 kts | 95° |
| 2026-05-01 12:50 | 42.89467 | -78.29124 | 16109 ft | 329 kts | 95° |
| 2026-05-01 12:51 | 42.89306 | -78.26028 | 16870 ft | 334 kts | 95° |
| 2026-05-01 12:51 | 42.89143 | -78.22856 | 17618 ft | 340 kts | 95° |
| 2026-05-01 12:51 | 42.88805 | -78.16372 | 19124 ft | 349 kts | 95° |
| 2026-05-01 12:52 | 42.88637 | -78.13097 | 19875 ft | 353 kts | 95° |
| 2026-05-01 12:52 | 42.88285 | -78.06428 | 21449 ft | 356 kts | 95° |
| 2026-05-01 12:52 | 42.88104 | -78.03065 | 22171 ft | 360 kts | 95° |
| 2026-05-01 12:53 | 42.87735 | -77.96206 | 23503 ft | 368 kts | 95° |
| 2026-05-01 12:53 | 42.87548 | -77.92737 | 24198 ft | 370 kts | 95° |
| 2026-05-01 12:53 | 42.87358 | -77.89246 | 24817 ft | 374 kts | 96° |
| 2026-05-01 12:54 | 42.87161 | -77.85684 | 25388 ft | 378 kts | 95° |
| 2026-05-01 12:54 | 42.86765 | -77.78500 | 26404 ft | 387 kts | 96° |
| 2026-05-01 12:54 | 42.86560 | -77.74863 | 26863 ft | 393 kts | 96° |
| 2026-05-01 12:55 | 42.86124 | -77.67127 | 27008 ft | 428 kts | 95° |
| 2026-05-01 12:55 | 42.85892 | -77.63011 | 27011 ft | 445 kts | 95° |
| 2026-05-01 12:55 | 42.85650 | -77.58771 | 27012 ft | 460 kts | 96° |
| 2026-05-01 12:56 | 42.85397 | -77.54346 | 27004 ft | 467 kts | 96° |
| 2026-05-01 12:56 | 42.85144 | -77.49970 | 27000 ft | 470 kts | 96° |
| 2026-05-01 12:56 | 42.84884 | -77.45530 | 27000 ft | 473 kts | 95° |
| 2026-05-01 12:56 | 42.84621 | -77.41042 | 26997 ft | 476 kts | 96° |
| 2026-05-01 12:57 | 42.84355 | -77.36553 | 26986 ft | 479 kts | 95° |
| 2026-05-01 12:57 | 42.83820 | -77.27548 | 26974 ft | 482 kts | 96° |
| 2026-05-01 12:57 | 42.83544 | -77.23006 | 26976 ft | 483 kts | 96° |
| 2026-05-01 12:58 | 42.83268 | -77.18444 | 26969 ft | 485 kts | 96° |
| 2026-05-01 12:58 | 42.82984 | -77.13832 | 26970 ft | 486 kts | 96° |
| 2026-05-01 12:58 | 42.82708 | -77.09283 | 26968 ft | 488 kts | 96° |
| 2026-05-01 12:59 | 42.82072 | -77.00120 | 26950 ft | 488 kts | 103° |
| 2026-05-01 12:59 | 42.80884 | -76.95837 | 26971 ft | 478 kts | 124° |
| 2026-05-01 12:59 | 42.77459 | -76.88114 | 26979 ft | 478 kts | 126° |
| 2026-05-01 13:00 | 42.74051 | -76.80439 | 26984 ft | 479 kts | 126° |
| 2026-05-01 13:00 | 42.72311 | -76.76524 | 26985 ft | 480 kts | 126° |
| 2026-05-01 13:01 | 42.68872 | -76.68795 | 26994 ft | 481 kts | 126° |
| 2026-05-01 13:01 | 42.67139 | -76.64911 | 26990 ft | 481 kts | 126° |
| 2026-05-01 13:01 | 42.63673 | -76.57150 | 26996 ft | 482 kts | 126° |
| 2026-05-01 13:02 | 42.61933 | -76.53268 | 26988 ft | 482 kts | 126° |
| 2026-05-01 13:07 | 42.25225 | -75.72459 | 22995 ft | 465 kts | 126° |
| 2026-05-01 13:07 | 42.23530 | -75.68778 | 22359 ft | 460 kts | 126° |
| 2026-05-01 13:07 | 42.21870 | -75.65182 | 21740 ft | 456 kts | 126° |
| 2026-05-01 13:08 | 42.20198 | -75.61561 | 21145 ft | 451 kts | 125° |
| 2026-05-01 13:08 | 42.18555 | -75.58009 | 20554 ft | 446 kts | 125° |
| 2026-05-01 13:08 | 42.16931 | -75.54499 | 19968 ft | 441 kts | 125° |
| 2026-05-01 13:08 | 42.15310 | -75.51000 | 19395 ft | 436 kts | 125° |
| 2026-05-01 13:09 | 42.13717 | -75.47569 | 18823 ft | 431 kts | 124° |
| 2026-05-01 13:09 | 42.12141 | -75.44177 | 18254 ft | 427 kts | 124° |
| 2026-05-01 13:09 | 42.10585 | -75.40826 | 17688 ft | 422 kts | 124° |
| 2026-05-01 13:09 | 42.09038 | -75.37505 | 17152 ft | 420 kts | 124° |
| 2026-05-01 13:10 | 42.07486 | -75.34177 | 16999 ft | 423 kts | 124° |
| 2026-05-01 13:10 | 42.05954 | -75.30827 | 16967 ft | 425 kts | 122° |
| 2026-05-01 13:10 | 42.04639 | -75.27232 | 16966 ft | 426 kts | 118° |
| 2026-05-01 13:10 | 42.03313 | -75.23701 | 16965 ft | 426 kts | 118° |
| 2026-05-01 13:11 | 42.01977 | -75.20131 | 16960 ft | 426 kts | 119° |
| 2026-05-01 13:11 | 42.00653 | -75.16608 | 16958 ft | 427 kts | 118° |
| 2026-05-01 13:11 | 41.99308 | -75.13047 | 16955 ft | 427 kts | 118° |
| 2026-05-01 13:11 | 41.97969 | -75.09499 | 16954 ft | 427 kts | 119° |
| 2026-05-01 13:12 | 41.96618 | -75.05931 | 16958 ft | 427 kts | 118° |
| 2026-05-01 13:12 | 41.95281 | -75.02405 | 16956 ft | 427 kts | 119° |
| 2026-05-01 13:12 | 41.93930 | -74.98838 | 16958 ft | 427 kts | 119° |
| 2026-05-01 13:12 | 41.92591 | -74.95309 | 16958 ft | 427 kts | 118° |
| 2026-05-01 13:13 | 41.91251 | -74.91782 | 16839 ft | 420 kts | 119° |
| 2026-05-01 13:13 | 41.89926 | -74.88305 | 16463 ft | 418 kts | 118° |
| 2026-05-01 13:13 | 41.88619 | -74.84876 | 16029 ft | 416 kts | 118° |
| 2026-05-01 13:13 | 41.87291 | -74.81404 | 15506 ft | 417 kts | 118° |
| 2026-05-01 13:14 | 41.85998 | -74.78011 | 14995 ft | 409 kts | 118° |
| 2026-05-01 13:14 | 41.84718 | -74.74667 | 14465 ft | 394 kts | 118° |
| 2026-05-01 13:14 | 41.83487 | -74.71448 | 13887 ft | 382 kts | 118° |
| 2026-05-01 13:14 | 41.82299 | -74.68351 | 13322 ft | 373 kts | 117° |
| 2026-05-01 13:15 | 41.81124 | -74.65292 | 12755 ft | 364 kts | 117° |
| 2026-05-01 13:15 | 41.79989 | -74.62340 | 12258 ft | 356 kts | 117° |
| 2026-05-01 13:15 | 41.78864 | -74.59412 | 11788 ft | 348 kts | 117° |
| 2026-05-01 13:15 | 41.77768 | -74.56583 | 11330 ft | 340 kts | 118° |
| 2026-05-01 13:16 | 41.76250 | -74.54263 | 10876 ft | 332 kts | 148° |
| 2026-05-01 13:16 | 41.74155 | -74.53189 | 10442 ft | 317 kts | 177° |
| 2026-05-01 13:16 | 41.72022 | -74.53350 | 10029 ft | 304 kts | 193° |
| 2026-05-01 13:17 | 41.65825 | -74.54479 | 8804 ft | 295 kts | 193° |
| 2026-05-01 13:17 | 41.63831 | -74.54851 | 8424 ft | 291 kts | 192° |
| 2026-05-01 13:18 | 41.59851 | -74.55605 | 8000 ft | 288 kts | 192° |
| 2026-05-01 13:18 | 41.57867 | -74.55976 | 7992 ft | 288 kts | 192° |
| 2026-05-01 13:18 | 41.55888 | -74.56350 | 7981 ft | 289 kts | 192° |
| 2026-05-01 13:18 | 41.53896 | -74.56724 | 7812 ft | 286 kts | 192° |
| 2026-05-01 13:19 | 41.51921 | -74.57099 | 7452 ft | 287 kts | 192° |
| 2026-05-01 13:19 | 41.49934 | -74.57474 | 7073 ft | 287 kts | 192° |
| 2026-05-01 13:19 | 41.46021 | -74.58212 | 6309 ft | 282 kts | 191° |
| 2026-05-01 13:20 | 41.44107 | -74.58571 | 6022 ft | 278 kts | 191° |
| 2026-05-01 13:20 | 41.42192 | -74.58929 | 5991 ft | 277 kts | 191° |
| 2026-05-01 13:20 | 41.40274 | -74.59197 | 5975 ft | 279 kts | 179° |
| 2026-05-01 13:21 | 41.37108 | -74.56461 | 6002 ft | 281 kts | 132° |
| 2026-05-01 13:21 | 41.35762 | -74.54549 | 5998 ft | 282 kts | 132° |
| 2026-05-01 13:21 | 41.34439 | -74.52644 | 5996 ft | 282 kts | 132° |
| 2026-05-01 13:21 | 41.33100 | -74.50717 | 5994 ft | 282 kts | 132° |
| 2026-05-01 13:22 | 41.31776 | -74.48814 | 5980 ft | 283 kts | 132° |
| 2026-05-01 13:22 | 41.30432 | -74.46887 | 5926 ft | 284 kts | 132° |
| 2026-05-01 13:22 | 41.29101 | -74.44983 | 5715 ft | 281 kts | 132° |
| 2026-05-01 13:22 | 41.27769 | -74.43089 | 5362 ft | 283 kts | 132° |
| 2026-05-01 13:23 | 41.26423 | -74.41177 | 5011 ft | 283 kts | 132° |
| 2026-05-01 13:23 | 41.25069 | -74.39258 | 4656 ft | 283 kts | 132° |
| 2026-05-01 13:23 | 41.23729 | -74.37360 | 4303 ft | 281 kts | 132° |
| 2026-05-01 13:23 | 41.22401 | -74.35480 | 4020 ft | 278 kts | 132° |
| 2026-05-01 13:24 | 41.21110 | -74.33657 | 3984 ft | 270 kts | 133° |
| 2026-05-01 13:24 | 41.19849 | -74.31875 | 3978 ft | 261 kts | 133° |
| 2026-05-01 13:24 | 41.18616 | -74.30133 | 3980 ft | 252 kts | 133° |
| 2026-05-01 13:25 | 41.16292 | -74.26857 | 3727 ft | 238 kts | 132° |
| 2026-05-01 13:25 | 41.15168 | -74.25275 | 3411 ft | 234 kts | 133° |
| 2026-05-01 13:25 | 41.14057 | -74.23717 | 3108 ft | 229 kts | 133° |
| 2026-05-01 13:25 | 41.12981 | -74.22208 | 3016 ft | 225 kts | 132° |
| 2026-05-01 13:26 | 41.11900 | -74.20696 | 3002 ft | 224 kts | 133° |
| 2026-05-01 13:26 | 41.10831 | -74.19194 | 2987 ft | 222 kts | 132° |
| 2026-05-01 13:26 | 41.09784 | -74.17728 | 2994 ft | 217 kts | 133° |
| 2026-05-01 13:26 | 41.08767 | -74.16309 | 3001 ft | 210 kts | 132° |
| 2026-05-01 13:27 | 41.07784 | -74.14933 | 2988 ft | 204 kts | 132° |
| 2026-05-01 13:27 | 41.06823 | -74.13581 | 3003 ft | 197 kts | 132° |
| 2026-05-01 13:27 | 41.04966 | -74.10991 | 2601 ft | 195 kts | 132° |
| 2026-05-01 13:28 | 41.03137 | -74.08358 | 2131 ft | 194 kts | 131° |
| 2026-05-01 13:28 | 41.02198 | -74.07043 | 1987 ft | 197 kts | 138° |
| 2026-05-01 13:29 | 40.99803 | -74.05427 | 1992 ft | 194 kts | 156° |
| 2026-05-01 13:29 | 40.97196 | -74.05030 | 2022 ft | 186 kts | 187° |
| 2026-05-01 13:30 | 40.92278 | -74.05405 | 1386 ft | 153 kts | 186° |
| 2026-05-01 13:31 | 40.90304 | -74.05560 | 977 ft | 134 kts | 186° |
| 2026-05-01 13:31 | 40.87648 | -74.05753 | 452 ft | 123 kts | 187° |
| 2026-05-01 13:32 | 40.85974 | -74.05879 | 127 ft | 118 kts | 186° |
| 2026-05-01 13:33 | 40.84367 | -74.06008 | 8 ft | 20 kts | 196° |
| 2026-05-01 13:33 | 40.84239 | -74.06229 | 7 ft | 13 kts | 273° |
| 2026-05-01 13:34 | 40.84228 | -74.06469 | 7 ft | 13 kts | 212° |
| 2026-05-01 13:34 | 40.84176 | -74.06544 | 8 ft | 1 kts | 299° |
| 2026-05-01 13:35 | 40.84178 | -74.06548 | 8 ft | 0 kts | 300° |